GGBNI ENJA-BIAR
Flight info
| Callsign | GGBNI |
|---|---|
| Flight time | 1h 1m |
| Altitude | 36000 |
| Route | M076F360 DCT 7055N00842W DCT 7010N |
| Aircraft | A21N/M-SDE2E3FGHIRWXY/LB1 |
Departure
| Time | 2026-05-09 18:57 |
|---|---|
| Airport | Jan Mayensfield (ENJA) |
Arrival
| Time | 2026-05-09 19:59 |
|---|---|
| Airport | Akureyri International Airport (BIAR) |
| Time | Latitude | Longitude | Altitude | Speed | Heading |
|---|---|---|---|---|---|
| 2026-05-09 18:50 | 70.94171 | -8.66170 | 41 ft | 0 kts | 127° |
| 2026-05-09 18:54 | 70.94158 | -8.66104 | 40 ft | 11 kts | 110° |
| 2026-05-09 18:54 | 70.94197 | -8.65861 | 41 ft | 18 kts | 43° |
| 2026-05-09 18:54 | 70.94321 | -8.65499 | 36 ft | 29 kts | 44° |
| 2026-05-09 18:55 | 70.94482 | -8.65072 | 41 ft | 31 kts | 39° |
| 2026-05-09 18:55 | 70.94652 | -8.64640 | 36 ft | 32 kts | 41° |
| 2026-05-09 18:55 | 70.94822 | -8.64191 | 41 ft | 33 kts | 39° |
| 2026-05-09 18:55 | 70.94968 | -8.63878 | 38 ft | 15 kts | 24° |
| 2026-05-09 18:56 | 70.94969 | -8.63764 | 37 ft | 0 kts | 178° |
| 2026-05-09 18:56 | 70.94959 | -8.63804 | 38 ft | 4 kts | 262° |
| 2026-05-09 18:56 | 70.94953 | -8.63838 | 38 ft | 0 kts | 213° |
| 2026-05-09 18:56 | 70.94953 | -8.63839 | 38 ft | 0 kts | 213° |
| 2026-05-09 18:57 | 70.94824 | -8.64163 | 41 ft | 63 kts | 222° |
| 2026-05-09 18:57 | 70.94282 | -8.65585 | 37 ft | 139 kts | 224° |
| 2026-05-09 18:57 | 70.93507 | -8.67478 | 630 ft | 149 kts | 230° |
| 2026-05-09 18:57 | 70.92670 | -8.69270 | 1064 ft | 142 kts | 223° |
| 2026-05-09 18:58 | 70.91717 | -8.70828 | 1389 ft | 156 kts | 219° |
| 2026-05-09 18:58 | 70.90774 | -8.72285 | 1963 ft | 151 kts | 218° |
| 2026-05-09 18:58 | 70.89823 | -8.73755 | 2449 ft | 156 kts | 218° |
| 2026-05-09 18:58 | 70.89189 | -8.74835 | 2740 ft | 160 kts | 219° |
| 2026-05-09 18:59 | 70.87895 | -8.77744 | 3127 ft | 184 kts | 225° |
| 2026-05-09 18:59 | 70.86855 | -8.80112 | 3682 ft | 194 kts | 221° |
| 2026-05-09 18:59 | 70.85723 | -8.82690 | 4197 ft | 213 kts | 223° |
| 2026-05-09 18:59 | 70.84466 | -8.85572 | 4642 ft | 240 kts | 222° |
| 2026-05-09 19:00 | 70.83552 | -8.87648 | 4960 ft | 257 kts | 221° |
| 2026-05-09 19:00 | 70.79951 | -8.95747 | 6596 ft | 285 kts | 220° |
| 2026-05-09 19:00 | 70.78863 | -8.98184 | 7210 ft | 286 kts | 219° |
| 2026-05-09 19:01 | 70.76735 | -9.02931 | 8490 ft | 291 kts | 219° |
| 2026-05-09 19:01 | 70.75643 | -9.05371 | 9113 ft | 294 kts | 220° |
| 2026-05-09 19:01 | 70.73972 | -9.09110 | 10101 ft | 295 kts | 218° |
| 2026-05-09 19:01 | 70.72305 | -9.12816 | 10761 ft | 310 kts | 218° |
| 2026-05-09 19:02 | 70.70512 | -9.16795 | 11160 ft | 331 kts | 219° |
| 2026-05-09 19:02 | 70.68603 | -9.21028 | 11538 ft | 351 kts | 219° |
| 2026-05-09 19:02 | 70.66573 | -9.25517 | 11875 ft | 370 kts | 218° |
| 2026-05-09 19:02 | 70.64457 | -9.30188 | 12199 ft | 386 kts | 218° |
| 2026-05-09 19:03 | 70.62249 | -9.35045 | 12571 ft | 397 kts | 218° |
| 2026-05-09 19:03 | 70.60007 | -9.39959 | 13188 ft | 400 kts | 218° |
| 2026-05-09 19:03 | 70.57753 | -9.44880 | 13844 ft | 401 kts | 218° |
| 2026-05-09 19:03 | 70.55492 | -9.49797 | 14376 ft | 403 kts | 218° |
| 2026-05-09 19:04 | 70.53202 | -9.54775 | 14855 ft | 406 kts | 218° |
| 2026-05-09 19:04 | 70.50909 | -9.59740 | 15354 ft | 408 kts | 217° |
| 2026-05-09 19:04 | 70.48601 | -9.64725 | 15810 ft | 411 kts | 217° |
| 2026-05-09 19:04 | 70.46278 | -9.69728 | 16266 ft | 413 kts | 217° |
| 2026-05-09 19:05 | 70.43943 | -9.74750 | 16689 ft | 415 kts | 217° |
| 2026-05-09 19:05 | 70.41581 | -9.79818 | 17021 ft | 420 kts | 217° |
| 2026-05-09 19:05 | 70.39200 | -9.84912 | 17416 ft | 422 kts | 217° |
| 2026-05-09 19:05 | 70.36804 | -9.90010 | 17809 ft | 424 kts | 217° |
| 2026-05-09 19:06 | 70.34389 | -9.95135 | 18166 ft | 427 kts | 216° |
| 2026-05-09 19:06 | 70.31964 | -10.00268 | 18535 ft | 429 kts | 216° |
| 2026-05-09 19:06 | 70.29530 | -10.05410 | 18835 ft | 431 kts | 217° |
| 2026-05-09 19:06 | 70.27080 | -10.10573 | 19123 ft | 434 kts | 217° |
| 2026-05-09 19:07 | 70.24617 | -10.15745 | 19455 ft | 435 kts | 216° |
| 2026-05-09 19:07 | 70.22143 | -10.20918 | 19728 ft | 438 kts | 216° |
| 2026-05-09 19:07 | 70.19674 | -10.26076 | 20004 ft | 440 kts | 216° |
| 2026-05-09 19:07 | 70.17171 | -10.31271 | 20297 ft | 442 kts | 217° |
| 2026-05-09 19:08 | 70.14651 | -10.36495 | 20577 ft | 444 kts | 217° |
| 2026-05-09 19:08 | 70.12112 | -10.41744 | 20881 ft | 446 kts | 217° |
| 2026-05-09 19:08 | 70.09575 | -10.46979 | 21144 ft | 449 kts | 216° |
| 2026-05-09 19:08 | 70.07007 | -10.52260 | 21431 ft | 450 kts | 216° |
| 2026-05-09 19:09 | 70.04439 | -10.57525 | 21718 ft | 452 kts | 216° |
| 2026-05-09 19:09 | 70.01853 | -10.62804 | 21941 ft | 456 kts | 217° |
| 2026-05-09 19:09 | 69.99239 | -10.68127 | 22264 ft | 457 kts | 217° |
| 2026-05-09 19:09 | 69.96625 | -10.73435 | 22575 ft | 459 kts | 217° |
| 2026-05-09 19:10 | 69.93987 | -10.78776 | 22889 ft | 461 kts | 217° |
| 2026-05-09 19:10 | 69.91349 | -10.84098 | 23230 ft | 464 kts | 217° |
| 2026-05-09 19:10 | 69.88687 | -10.89459 | 23591 ft | 466 kts | 217° |
| 2026-05-09 19:10 | 69.86013 | -10.94815 | 23941 ft | 468 kts | 217° |
| 2026-05-09 19:11 | 69.83332 | -11.00161 | 24291 ft | 470 kts | 217° |
| 2026-05-09 19:11 | 69.80634 | -11.05531 | 24629 ft | 472 kts | 218° |
| 2026-05-09 19:11 | 69.77922 | -11.10922 | 24946 ft | 474 kts | 218° |
| 2026-05-09 19:11 | 69.75194 | -11.16317 | 25335 ft | 475 kts | 218° |
| 2026-05-09 19:12 | 69.72471 | -11.21688 | 25736 ft | 475 kts | 218° |
| 2026-05-09 19:12 | 69.69740 | -11.27065 | 26152 ft | 475 kts | 218° |
| 2026-05-09 19:12 | 69.67016 | -11.32402 | 26542 ft | 475 kts | 218° |
| 2026-05-09 19:12 | 69.64280 | -11.37751 | 26944 ft | 475 kts | 218° |
| 2026-05-09 19:13 | 69.61583 | -11.43006 | 27333 ft | 475 kts | 218° |
| 2026-05-09 19:13 | 69.58810 | -11.48397 | 27734 ft | 475 kts | 219° |
| 2026-05-09 19:13 | 69.56104 | -11.53635 | 28131 ft | 475 kts | 219° |
| 2026-05-09 19:13 | 69.53360 | -11.58916 | 28535 ft | 476 kts | 219° |
| 2026-05-09 19:14 | 69.50610 | -11.64200 | 28923 ft | 476 kts | 219° |
| 2026-05-09 19:14 | 69.47865 | -11.69469 | 29316 ft | 476 kts | 219° |
| 2026-05-09 19:14 | 69.45115 | -11.74721 | 29687 ft | 476 kts | 220° |
| 2026-05-09 19:14 | 69.42375 | -11.79947 | 30063 ft | 476 kts | 220° |
| 2026-05-09 19:15 | 69.39622 | -11.85176 | 30407 ft | 476 kts | 219° |
| 2026-05-09 19:15 | 69.36860 | -11.90404 | 30737 ft | 476 kts | 220° |
| 2026-05-09 19:15 | 69.34113 | -11.95591 | 31048 ft | 476 kts | 220° |
| 2026-05-09 19:15 | 69.31358 | -12.00780 | 31360 ft | 476 kts | 219° |
| 2026-05-09 19:16 | 69.28595 | -12.05962 | 31673 ft | 475 kts | 219° |
| 2026-05-09 19:16 | 69.25843 | -12.11108 | 31989 ft | 475 kts | 219° |
| 2026-05-09 19:16 | 69.23088 | -12.16265 | 32294 ft | 475 kts | 219° |
| 2026-05-09 19:16 | 69.20333 | -12.21409 | 32530 ft | 475 kts | 220° |
| 2026-05-09 19:17 | 69.17568 | -12.26556 | 32817 ft | 476 kts | 220° |
| 2026-05-09 19:17 | 69.14803 | -12.31679 | 33108 ft | 475 kts | 219° |
| 2026-05-09 19:17 | 69.12045 | -12.36763 | 33385 ft | 475 kts | 219° |
| 2026-05-09 19:17 | 69.09308 | -12.41779 | 33659 ft | 475 kts | 219° |
| 2026-05-09 19:18 | 69.06505 | -12.46899 | 33915 ft | 475 kts | 219° |
| 2026-05-09 19:18 | 69.03777 | -12.51873 | 34189 ft | 474 kts | 219° |
| 2026-05-09 19:18 | 69.01008 | -12.56901 | 34402 ft | 474 kts | 219° |
| 2026-05-09 19:18 | 68.98239 | -12.61915 | 34600 ft | 474 kts | 219° |
| 2026-05-09 19:19 | 68.95474 | -12.66911 | 34817 ft | 474 kts | 219° |
| 2026-05-09 19:19 | 68.92708 | -12.71911 | 34996 ft | 474 kts | 219° |
| 2026-05-09 19:19 | 68.89943 | -12.76896 | 35181 ft | 474 kts | 219° |
| 2026-05-09 19:19 | 68.87173 | -12.81872 | 35367 ft | 474 kts | 219° |
| 2026-05-09 19:20 | 68.84401 | -12.86816 | 35544 ft | 474 kts | 219° |
| 2026-05-09 19:20 | 68.81634 | -12.91735 | 35711 ft | 474 kts | 218° |
| 2026-05-09 19:20 | 68.78856 | -12.96651 | 35825 ft | 474 kts | 219° |
| 2026-05-09 19:20 | 68.76072 | -13.01574 | 35973 ft | 474 kts | 219° |
| 2026-05-09 19:21 | 68.73292 | -13.06479 | 36128 ft | 474 kts | 219° |
| 2026-05-09 19:21 | 68.70516 | -13.11369 | 36295 ft | 474 kts | 219° |
| 2026-05-09 19:21 | 68.67733 | -13.16258 | 36423 ft | 474 kts | 219° |
| 2026-05-09 19:21 | 68.64950 | -13.21128 | 36586 ft | 474 kts | 219° |
| 2026-05-09 19:22 | 68.62169 | -13.25988 | 36752 ft | 474 kts | 219° |
| 2026-05-09 19:22 | 68.59385 | -13.30818 | 36904 ft | 474 kts | 219° |
| 2026-05-09 19:22 | 68.56603 | -13.35639 | 37050 ft | 474 kts | 219° |
| 2026-05-09 19:22 | 68.53819 | -13.40447 | 37189 ft | 474 kts | 219° |
| 2026-05-09 19:23 | 68.51061 | -13.45194 | 37322 ft | 474 kts | 218° |
| 2026-05-09 19:23 | 68.48272 | -13.49988 | 37458 ft | 474 kts | 218° |
| 2026-05-09 19:23 | 68.45483 | -13.54769 | 37589 ft | 474 kts | 218° |
| 2026-05-09 19:23 | 68.42687 | -13.59529 | 37735 ft | 474 kts | 218° |
| 2026-05-09 19:24 | 68.37101 | -13.68972 | 37960 ft | 474 kts | 218° |
| 2026-05-09 19:24 | 68.34304 | -13.73704 | 38109 ft | 473 kts | 218° |
| 2026-05-09 19:24 | 68.31513 | -13.78424 | 38238 ft | 473 kts | 218° |
| 2026-05-09 19:25 | 68.25913 | -13.87842 | 38256 ft | 473 kts | 218° |
| 2026-05-09 19:25 | 68.20316 | -13.97188 | 38229 ft | 473 kts | 218° |
| 2026-05-09 19:26 | 68.14712 | -14.06497 | 38236 ft | 473 kts | 218° |
| 2026-05-09 19:26 | 68.09104 | -14.15756 | 38226 ft | 474 kts | 218° |
| 2026-05-09 19:27 | 68.03513 | -14.24923 | 38240 ft | 474 kts | 218° |
| 2026-05-09 19:27 | 67.97889 | -14.34088 | 38198 ft | 474 kts | 218° |
| 2026-05-09 19:28 | 67.92233 | -14.43277 | 38227 ft | 476 kts | 218° |
| 2026-05-09 19:28 | 67.86589 | -14.52388 | 38231 ft | 477 kts | 218° |
| 2026-05-09 19:29 | 67.80913 | -14.61510 | 38241 ft | 475 kts | 218° |
| 2026-05-09 19:29 | 67.75242 | -14.70548 | 38246 ft | 476 kts | 218° |
| 2026-05-09 19:30 | 67.69581 | -14.79517 | 38258 ft | 476 kts | 218° |
| 2026-05-09 19:30 | 67.63892 | -14.88488 | 38259 ft | 476 kts | 218° |
| 2026-05-09 19:31 | 67.58190 | -14.97423 | 38260 ft | 476 kts | 218° |
| 2026-05-09 19:31 | 67.52505 | -15.06301 | 38267 ft | 476 kts | 218° |
| 2026-05-09 19:32 | 67.46814 | -15.15155 | 38256 ft | 477 kts | 218° |
| 2026-05-09 19:32 | 67.41099 | -15.23964 | 38278 ft | 477 kts | 218° |
| 2026-05-09 19:33 | 67.35421 | -15.32674 | 38282 ft | 476 kts | 218° |
| 2026-05-09 19:33 | 67.29674 | -15.41469 | 38283 ft | 476 kts | 218° |
| 2026-05-09 19:34 | 67.24001 | -15.50090 | 38293 ft | 477 kts | 218° |
| 2026-05-09 19:34 | 67.18226 | -15.58745 | 38293 ft | 476 kts | 218° |
| 2026-05-09 19:35 | 67.12512 | -15.67296 | 38272 ft | 480 kts | 218° |
| 2026-05-09 19:35 | 67.06768 | -15.75857 | 38297 ft | 475 kts | 218° |
| 2026-05-09 19:36 | 67.01023 | -15.84368 | 38112 ft | 469 kts | 219° |
| 2026-05-09 19:36 | 66.98227 | -15.88505 | 37836 ft | 472 kts | 219° |
| 2026-05-09 19:36 | 66.95375 | -15.92716 | 37551 ft | 474 kts | 219° |
| 2026-05-09 19:37 | 66.92511 | -15.96921 | 37285 ft | 474 kts | 219° |
| 2026-05-09 19:37 | 66.89652 | -16.01106 | 37035 ft | 475 kts | 219° |
| 2026-05-09 19:37 | 66.86796 | -16.05279 | 36786 ft | 475 kts | 219° |
| 2026-05-09 19:37 | 66.83925 | -16.09465 | 36535 ft | 475 kts | 219° |
| 2026-05-09 19:38 | 66.81058 | -16.13632 | 36276 ft | 475 kts | 220° |
| 2026-05-09 19:38 | 66.78192 | -16.17780 | 36047 ft | 475 kts | 220° |
| 2026-05-09 19:38 | 66.75329 | -16.21916 | 35808 ft | 475 kts | 220° |
| 2026-05-09 19:38 | 66.72456 | -16.26056 | 35501 ft | 474 kts | 221° |
| 2026-05-09 19:39 | 66.69597 | -16.30163 | 35230 ft | 474 kts | 221° |
| 2026-05-09 19:39 | 66.66752 | -16.34243 | 34997 ft | 474 kts | 221° |
| 2026-05-09 19:39 | 66.63883 | -16.38343 | 34765 ft | 475 kts | 221° |
| 2026-05-09 19:39 | 66.61005 | -16.42437 | 34533 ft | 475 kts | 221° |
| 2026-05-09 19:40 | 66.58108 | -16.46553 | 33992 ft | 471 kts | 222° |
| 2026-05-09 19:40 | 66.55305 | -16.50541 | 33249 ft | 468 kts | 222° |
| 2026-05-09 19:40 | 66.52473 | -16.54560 | 32481 ft | 469 kts | 222° |
| 2026-05-09 19:40 | 66.49619 | -16.58617 | 31698 ft | 470 kts | 222° |
| 2026-05-09 19:41 | 66.46780 | -16.62635 | 30937 ft | 471 kts | 221° |
| 2026-05-09 19:41 | 66.43911 | -16.66647 | 30127 ft | 472 kts | 221° |
| 2026-05-09 19:41 | 66.41029 | -16.70675 | 29174 ft | 474 kts | 220° |
| 2026-05-09 19:41 | 66.38144 | -16.74699 | 28242 ft | 476 kts | 220° |
| 2026-05-09 19:42 | 66.35250 | -16.78724 | 27331 ft | 477 kts | 219° |
| 2026-05-09 19:42 | 66.32350 | -16.82740 | 26355 ft | 478 kts | 219° |
| 2026-05-09 19:42 | 66.29449 | -16.86750 | 25457 ft | 478 kts | 218° |
| 2026-05-09 19:42 | 66.26537 | -16.90768 | 24647 ft | 477 kts | 218° |
| 2026-05-09 19:43 | 66.23646 | -16.94753 | 23887 ft | 474 kts | 218° |
| 2026-05-09 19:43 | 66.20766 | -16.98717 | 22998 ft | 473 kts | 217° |
| 2026-05-09 19:43 | 66.17886 | -17.02665 | 22263 ft | 472 kts | 217° |
| 2026-05-09 19:43 | 66.15025 | -17.06583 | 21645 ft | 468 kts | 217° |
| 2026-05-09 19:44 | 66.12204 | -17.10458 | 20950 ft | 463 kts | 217° |
| 2026-05-09 19:44 | 66.09400 | -17.14280 | 20183 ft | 459 kts | 216° |
| 2026-05-09 19:44 | 66.06642 | -17.18024 | 19470 ft | 456 kts | 216° |
| 2026-05-09 19:44 | 66.03866 | -17.21765 | 18745 ft | 453 kts | 215° |
| 2026-05-09 19:45 | 66.01117 | -17.25461 | 17940 ft | 450 kts | 215° |
| 2026-05-09 19:45 | 65.98392 | -17.29136 | 17238 ft | 440 kts | 215° |
| 2026-05-09 19:45 | 65.95743 | -17.32701 | 16653 ft | 428 kts | 215° |
| 2026-05-09 19:45 | 65.93141 | -17.36175 | 16060 ft | 423 kts | 215° |
| 2026-05-09 19:46 | 65.90574 | -17.39596 | 15409 ft | 419 kts | 214° |
| 2026-05-09 19:46 | 65.88019 | -17.42999 | 14994 ft | 417 kts | 214° |
| 2026-05-09 19:46 | 65.85489 | -17.46365 | 14643 ft | 414 kts | 214° |
| 2026-05-09 19:46 | 65.82965 | -17.49719 | 14134 ft | 409 kts | 214° |
| 2026-05-09 19:47 | 65.80485 | -17.53009 | 13490 ft | 406 kts | 214° |
| 2026-05-09 19:47 | 65.78013 | -17.56279 | 12816 ft | 404 kts | 214° |
| 2026-05-09 19:47 | 65.75547 | -17.59521 | 12162 ft | 397 kts | 213° |
| 2026-05-09 19:47 | 65.73158 | -17.62653 | 11757 ft | 382 kts | 213° |
| 2026-05-09 19:48 | 65.70867 | -17.65657 | 11470 ft | 364 kts | 214° |
| 2026-05-09 19:48 | 65.68689 | -17.68518 | 11236 ft | 349 kts | 214° |
| 2026-05-09 19:48 | 65.66596 | -17.71269 | 11041 ft | 334 kts | 214° |
| 2026-05-09 19:48 | 65.64613 | -17.73856 | 10854 ft | 321 kts | 214° |
| 2026-05-09 19:49 | 65.63311 | -17.75541 | 10749 ft | 312 kts | 214° |
| 2026-05-09 19:49 | 65.60840 | -17.78744 | 10548 ft | 295 kts | 214° |
| 2026-05-09 19:49 | 65.59049 | -17.81073 | 10217 ft | 290 kts | 214° |
| 2026-05-09 19:49 | 65.57284 | -17.83375 | 9765 ft | 289 kts | 214° |
| 2026-05-09 19:50 | 65.55524 | -17.85654 | 9344 ft | 285 kts | 214° |
| 2026-05-09 19:50 | 65.53783 | -17.87906 | 8944 ft | 282 kts | 213° |
| 2026-05-09 19:50 | 65.52638 | -17.89390 | 8690 ft | 280 kts | 213° |
| 2026-05-09 19:50 | 65.50918 | -17.91611 | 8300 ft | 273 kts | 213° |
| 2026-05-09 19:51 | 65.49272 | -17.93736 | 7986 ft | 270 kts | 213° |
| 2026-05-09 19:51 | 65.47603 | -17.95883 | 7671 ft | 268 kts | 213° |
| 2026-05-09 19:51 | 65.45961 | -17.97992 | 7246 ft | 268 kts | 213° |
| 2026-05-09 19:51 | 65.44325 | -18.00090 | 6803 ft | 266 kts | 212° |
| 2026-05-09 19:52 | 65.42695 | -18.02177 | 6415 ft | 263 kts | 212° |
| 2026-05-09 19:52 | 65.41098 | -18.04263 | 6070 ft | 257 kts | 215° |
| 2026-05-09 19:52 | 65.39858 | -18.07029 | 5843 ft | 240 kts | 242° |
| 2026-05-09 19:52 | 65.39493 | -18.10714 | 5772 ft | 220 kts | 278° |
| 2026-05-09 19:53 | 65.40137 | -18.13945 | 5841 ft | 220 kts | 314° |
| 2026-05-09 19:53 | 65.41506 | -18.15588 | 5836 ft | 228 kts | 349° |
| 2026-05-09 19:53 | 65.43076 | -18.14946 | 5846 ft | 237 kts | 21° |
| 2026-05-09 19:53 | 65.44535 | -18.13044 | 5846 ft | 239 kts | 27° |
| 2026-05-09 19:54 | 65.45955 | -18.10951 | 5837 ft | 239 kts | 28° |
| 2026-05-09 19:54 | 65.47364 | -18.08881 | 5687 ft | 234 kts | 28° |
| 2026-05-09 19:54 | 65.48745 | -18.07153 | 5413 ft | 212 kts | 17° |
| 2026-05-09 19:54 | 65.50077 | -18.06395 | 5299 ft | 181 kts | 4° |
| 2026-05-09 19:55 | 65.51219 | -18.06287 | 4940 ft | 151 kts | 356° |
| 2026-05-09 19:55 | 65.52245 | -18.06345 | 4543 ft | 146 kts | 355° |
| 2026-05-09 19:55 | 65.53256 | -18.06416 | 4171 ft | 144 kts | 356° |
| 2026-05-09 19:56 | 65.55236 | -18.06563 | 3470 ft | 142 kts | 358° |
| 2026-05-09 19:56 | 65.56193 | -18.06635 | 3126 ft | 140 kts | 358° |
| 2026-05-09 19:56 | 65.57163 | -18.06708 | 2780 ft | 138 kts | 359° |
| 2026-05-09 19:56 | 65.58136 | -18.06781 | 2404 ft | 137 kts | 358° |
| 2026-05-09 19:57 | 65.59066 | -18.06851 | 2019 ft | 133 kts | 358° |
| 2026-05-09 19:57 | 65.59976 | -18.06920 | 1662 ft | 131 kts | 357° |
| 2026-05-09 19:57 | 65.60897 | -18.06909 | 1307 ft | 131 kts | 1° |
| 2026-05-09 19:57 | 65.61798 | -18.06690 | 942 ft | 130 kts | 4° |
| 2026-05-09 19:58 | 65.62702 | -18.06639 | 598 ft | 130 kts | 356° |
| 2026-05-09 19:58 | 65.63587 | -18.06807 | 291 ft | 129 kts | 354° |
| 2026-05-09 19:58 | 65.64478 | -18.06970 | 104 ft | 128 kts | 352° |
| 2026-05-09 19:58 | 65.65332 | -18.07143 | 27 ft | 115 kts | 354° |
| 2026-05-09 19:59 | 65.65954 | -18.07262 | 26 ft | 59 kts | 356° |
| 2026-05-09 19:59 | 65.66198 | -18.07306 | 28 ft | 12 kts | 355° |
| 2026-05-09 19:59 | 65.66266 | -18.07309 | 30 ft | 6 kts | 284° |
| 2026-05-09 19:59 | 65.66235 | -18.07320 | 26 ft | 6 kts | 172° |
| 2026-05-09 20:00 | 65.66180 | -18.07303 | 26 ft | 9 kts | 174° |
| 2026-05-09 20:00 | 65.66082 | -18.07284 | 26 ft | 22 kts | 176° |
| 2026-05-09 20:00 | 65.65898 | -18.07251 | 26 ft | 28 kts | 176° |
| 2026-05-09 20:00 | 65.65697 | -18.07215 | 27 ft | 30 kts | 176° |
| 2026-05-09 20:01 | 65.65510 | -18.07185 | 27 ft | 16 kts | 178° |
| 2026-05-09 20:01 | 65.65477 | -18.07358 | 26 ft | 6 kts | 269° |
| 2026-05-09 20:01 | 65.65475 | -18.07463 | 26 ft | 6 kts | 272° |
| 2026-05-09 20:01 | 65.65489 | -18.07495 | 26 ft | 2 kts | 355° |
| 2026-05-09 20:02 | 65.65495 | -18.07481 | 26 ft | 1 kts | 62° |
| 2026-05-09 20:02 | 65.65495 | -18.07476 | 26 ft | 0 kts | 78° |